createdAt,value
2019-02-28T00:01:00.348Z,61.70
2019-02-28T00:03:30.193Z,61.60
2019-02-28T00:06:00.195Z,61.70
2019-02-28T00:08:30.047Z,61.60
2019-02-28T00:11:02.155Z,61.70
2019-02-28T00:13:31.604Z,61.70
2019-02-28T00:16:03.370Z,61.60
2019-02-28T00:18:33.022Z,61.60
2019-02-28T00:21:06.104Z,61.50
2019-02-28T00:23:34.441Z,61.50
2019-02-28T00:26:04.356Z,61.50
2019-02-28T00:28:34.220Z,61.40
2019-02-28T00:31:04.204Z,61.30
2019-02-28T00:33:34.074Z,61.30
2019-02-28T00:36:03.988Z,61.30
2019-02-28T00:38:33.860Z,61.40
2019-02-28T00:41:03.849Z,61.30
2019-02-28T00:43:33.852Z,61.20
2019-02-28T00:46:03.724Z,61.10
2019-02-28T00:48:33.656Z,61.20
2019-02-28T00:51:05.011Z,61.00
2019-02-28T00:53:37.399Z,61.10
2019-02-28T00:56:06.559Z,61.00
2019-02-28T00:58:36.403Z,60.90
2019-02-28T01:01:08.324Z,60.90
2019-02-28T01:03:37.881Z,60.90
2019-02-28T01:06:10.522Z,60.90
2019-02-28T01:08:39.464Z,60.90
2019-02-28T01:11:10.395Z,61.70
2019-02-28T01:13:40.880Z,60.70
2019-02-28T01:16:10.827Z,60.70
2019-02-28T01:18:40.744Z,60.60
2019-02-28T01:21:10.689Z,60.60
2019-02-28T01:23:40.703Z,60.60
2019-02-28T01:26:11.737Z,60.60
2019-02-28T01:28:42.182Z,60.60
2019-02-28T01:31:12.307Z,60.50
2019-02-28T01:33:42.284Z,60.30
2019-02-28T01:36:15.298Z,60.30
2019-02-28T01:38:43.703Z,60.20
2019-02-28T01:41:13.632Z,60.20
2019-02-28T01:43:43.572Z,60.20
2019-02-28T01:46:14.458Z,60.20
2019-02-28T01:48:45.052Z,60.20
2019-02-28T01:51:14.892Z,60.00
2019-02-28T01:53:44.761Z,59.90
2019-02-28T01:56:15.755Z,60.00
2019-02-28T01:58:47.584Z,59.80
2019-02-28T02:01:17.242Z,59.90
2019-02-28T02:03:47.190Z,59.80
2019-02-28T02:06:17.099Z,59.70
2019-02-28T02:08:46.969Z,59.80
2019-02-28T02:11:16.811Z,59.80
2019-02-28T02:13:46.677Z,59.70
2019-02-28T02:16:16.591Z,59.70
2019-02-28T02:18:46.460Z,59.70
2019-02-28T02:21:16.301Z,59.60
2019-02-28T02:23:46.238Z,59.60
2019-02-28T02:26:16.149Z,59.50
2019-02-28T02:28:46.009Z,59.50
2019-02-28T02:31:15.854Z,59.50
2019-02-28T02:33:51.091Z,59.40
2019-02-28T02:36:17.761Z,59.40
2019-02-28T02:38:47.686Z,59.40
2019-02-28T02:41:17.537Z,59.40
2019-02-28T02:43:47.468Z,59.20
2019-02-28T02:46:20.209Z,59.30
2019-02-28T02:48:48.859Z,59.20
2019-02-28T02:51:18.796Z,59.30
2019-02-28T02:53:48.709Z,59.20
2019-02-28T02:56:18.643Z,59.20
2019-02-28T02:58:48.557Z,59.10
2019-02-28T03:01:18.422Z,59.20
2019-02-28T03:03:48.340Z,59.10
2019-02-28T03:06:18.291Z,59.10
2019-02-28T03:08:48.202Z,59.10
2019-02-28T03:11:18.144Z,59.00
2019-02-28T03:13:47.989Z,58.90
2019-02-28T03:16:17.993Z,58.90
2019-02-28T03:18:47.918Z,58.80
2019-02-28T03:21:17.852Z,58.90
2019-02-28T03:23:47.780Z,59.30
2019-02-28T03:26:17.640Z,59.00
2019-02-28T03:28:47.581Z,58.90
2019-02-28T03:31:17.501Z,58.80
2019-02-28T03:33:47.460Z,58.90
2019-02-28T03:36:18.325Z,58.90
2019-02-28T03:38:49.809Z,58.80
2019-02-28T03:41:19.731Z,58.80
2019-02-28T03:43:50.730Z,58.80
2019-02-28T03:46:20.783Z,58.70
2019-02-28T03:48:50.650Z,58.80
2019-02-28T03:51:20.504Z,58.80
2019-02-28T03:53:55.647Z,58.70
2019-02-28T03:56:22.389Z,58.80
2019-02-28T03:58:52.254Z,58.60
2019-02-28T04:01:22.366Z,58.60
2019-02-28T04:03:52.299Z,58.60
2019-02-28T04:06:22.147Z,58.60
2019-02-28T04:08:52.167Z,58.70
2019-02-28T04:11:22.092Z,58.60
2019-02-28T04:13:52.481Z,58.60
2019-02-28T04:16:23.642Z,58.60
2019-02-28T04:18:53.644Z,58.60
2019-02-28T04:21:23.494Z,58.60
2019-02-28T04:23:53.426Z,58.40
2019-02-28T04:26:23.343Z,58.50
2019-02-28T04:28:54.655Z,59.00
2019-02-28T04:31:24.833Z,59.00
2019-02-28T04:33:54.688Z,58.30
2019-02-28T04:36:24.528Z,58.30
2019-02-28T04:38:54.391Z,58.30
2019-02-28T04:41:24.232Z,58.30
2019-02-28T04:43:54.177Z,58.30
2019-02-28T04:46:24.025Z,58.20
2019-02-28T04:48:53.939Z,58.10
2019-02-28T04:51:23.797Z,58.10
2019-02-28T04:53:53.833Z,58.20
2019-02-28T04:56:23.781Z,58.20
2019-02-28T04:58:56.523Z,58.10
2019-02-28T05:01:25.332Z,58.10
2019-02-28T05:03:55.174Z,58.10
2019-02-28T05:06:25.044Z,58.10
2019-02-28T05:08:54.893Z,58.80
2019-02-28T05:11:27.430Z,58.10
2019-02-28T05:13:56.372Z,58.10
2019-02-28T05:16:26.237Z,58.10
2019-02-28T05:18:58.253Z,58.10
2019-02-28T05:21:27.649Z,58.10
2019-02-28T05:23:58.561Z,58.10
2019-02-28T05:26:28.430Z,58.10
2019-02-28T05:28:58.332Z,58.10
2019-02-28T05:31:28.213Z,58.20
2019-02-28T05:33:58.117Z,58.80
2019-02-28T05:36:28.055Z,58.20
2019-02-28T05:38:57.994Z,58.20
2019-02-28T05:41:27.910Z,58.30
2019-02-28T05:43:57.774Z,58.30
2019-02-28T05:46:27.752Z,58.20
2019-02-28T05:48:57.687Z,58.20
2019-02-28T05:51:27.573Z,58.10
2019-02-28T05:53:57.512Z,58.10
2019-02-28T05:56:32.780Z,58.20
2019-02-28T05:58:59.003Z,58.00
2019-02-28T06:01:28.930Z,58.00
2019-02-28T06:04:02.718Z,57.90
2019-02-28T06:06:30.476Z,57.80
2019-02-28T06:09:00.413Z,57.80
2019-02-28T06:11:34.510Z,57.80
2019-02-28T06:14:02.943Z,57.80
2019-02-28T06:16:32.873Z,57.80
2019-02-28T06:19:04.565Z,58.50
2019-02-28T06:21:34.253Z,57.60
2019-02-28T06:24:04.252Z,57.60
2019-02-28T06:26:34.141Z,57.60
2019-02-28T06:29:04.957Z,57.70
2019-02-28T06:31:35.917Z,57.60
2019-02-28T06:34:08.559Z,57.60
2019-02-28T06:36:37.395Z,57.60
2019-02-28T06:39:07.372Z,57.60
2019-02-28T06:41:39.898Z,57.50
2019-02-28T06:44:08.843Z,57.50
2019-02-28T06:46:39.747Z,57.50
2019-02-28T06:49:09.819Z,57.80
2019-02-28T06:51:39.684Z,57.40
2019-02-28T06:54:09.526Z,57.40
2019-02-28T06:56:40.520Z,57.50
2019-02-28T06:59:10.458Z,57.50
2019-02-28T07:01:40.459Z,57.40
2019-02-28T07:04:11.494Z,57.40
2019-02-28T07:06:41.945Z,57.40
2019-02-28T07:09:11.869Z,57.30
2019-02-28T07:11:41.792Z,57.40
2019-02-28T07:14:13.799Z,57.80
2019-02-28T07:16:43.195Z,58.30
2019-02-28T07:19:13.135Z,58.50
2019-02-28T07:21:44.045Z,59.10
2019-02-28T07:24:14.367Z,59.00
2019-02-28T07:26:44.272Z,59.00
2019-02-28T07:29:14.137Z,59.00
2019-02-28T07:31:44.052Z,59.10
2019-02-28T07:34:19.547Z,59.10
2019-02-28T07:36:45.862Z,59.40
2019-02-28T07:39:15.990Z,60.30
2019-02-28T07:41:45.900Z,60.10
2019-02-28T07:44:21.202Z,59.80
2019-02-28T07:46:47.397Z,61.00
2019-02-28T07:49:17.330Z,60.90
2019-02-28T07:51:47.168Z,61.00
2019-02-28T07:54:17.117Z,60.50
2019-02-28T07:56:47.106Z,61.20
2019-02-28T07:59:17.002Z,59.80
2019-02-28T08:01:46.917Z,59.60
2019-02-28T08:04:18.560Z,60.90
2019-02-28T08:06:49.545Z,60.20
2019-02-28T08:09:27.704Z,60.10
2019-02-28T08:11:57.690Z,59.90
2019-02-28T08:14:27.559Z,60.00
2019-02-28T08:16:57.425Z,60.30
2019-02-28T08:19:28.191Z,38.40
2019-02-28T08:21:58.491Z,37.50
2019-02-28T08:24:28.333Z,37.50
2019-02-28T08:26:58.186Z,38.60
2019-02-28T08:29:28.107Z,37.60
2019-02-28T08:31:58.152Z,37.70
2019-02-28T08:34:28.078Z,37.40
2019-02-28T08:36:58.020Z,37.30
2019-02-28T08:39:27.949Z,38.90
2019-02-28T08:42:02.817Z,38.20
2019-02-28T08:44:29.518Z,37.70
2019-02-28T08:46:59.539Z,40.10
2019-02-28T08:49:29.532Z,37.90
2019-02-28T08:51:59.396Z,36.90
2019-02-28T08:54:29.261Z,36.50
2019-02-28T08:56:59.208Z,37.00
2019-02-28T08:59:29.053Z,37.30
2019-02-28T09:01:58.980Z,36.70
2019-02-28T09:04:28.920Z,36.80
2019-02-28T09:06:58.863Z,37.40
2019-02-28T09:09:28.732Z,36.90
2019-02-28T09:11:58.911Z,37.40
2019-02-28T09:14:28.851Z,36.80
2019-02-28T09:16:59.858Z,36.20
2019-02-28T09:19:32.630Z,36.50
2019-02-28T09:22:01.557Z,36.00
2019-02-28T09:24:31.431Z,36.30
2019-02-28T09:27:03.869Z,36.80
2019-02-28T09:29:32.927Z,36.30
2019-02-28T09:32:02.925Z,36.30
2019-02-28T09:34:32.791Z,37.10
2019-02-28T09:37:02.644Z,36.30
2019-02-28T09:39:32.657Z,36.80
2019-02-28T09:42:02.581Z,39.80
2019-02-28T09:44:32.537Z,42.80
2019-02-28T09:47:02.434Z,44.00
2019-02-28T09:49:32.297Z,45.20
2019-02-28T09:52:03.279Z,46.10
2019-02-28T09:54:33.840Z,46.50
2019-02-28T09:57:03.762Z,47.10
2019-02-28T09:59:37.292Z,47.40
2019-02-28T10:02:08.403Z,48.10
2019-02-28T10:04:36.946Z,48.80
2019-02-28T10:07:06.953Z,49.10
2019-02-28T10:09:36.865Z,49.50
2019-02-28T10:12:09.105Z,50.00
2019-02-28T10:14:39.930Z,50.20
2019-02-28T10:17:09.861Z,51.50
2019-02-28T10:19:45.483Z,51.00
2019-02-28T10:22:12.919Z,52.00
2019-02-28T10:24:42.971Z,52.60
2019-02-28T10:27:12.981Z,53.20
2019-02-28T10:29:42.987Z,53.80
2019-02-28T10:32:12.916Z,54.10
2019-02-28T10:34:42.824Z,54.20
2019-02-28T10:37:12.687Z,54.80
2019-02-28T10:39:43.186Z,54.80
2019-02-28T10:42:13.736Z,55.20
2019-02-28T10:44:43.668Z,55.50
2019-02-28T10:47:13.507Z,55.90
2019-02-28T10:49:43.377Z,56.30
2019-02-28T10:52:13.289Z,56.20
2019-02-28T10:54:43.166Z,56.30
2019-02-28T10:57:13.146Z,56.50
2019-02-28T10:59:43.069Z,57.00
2019-02-28T11:02:18.209Z,57.30
2019-02-28T11:04:45.149Z,57.10
2019-02-28T11:07:15.149Z,57.60
2019-02-28T11:09:45.127Z,57.80
2019-02-28T11:12:19.639Z,57.20
2019-02-28T11:14:46.751Z,44.70
2019-02-28T11:17:16.674Z,49.60
2019-02-28T11:19:48.507Z,53.60
2019-02-28T11:22:18.300Z,55.10
2019-02-28T11:24:48.928Z,56.30
2019-02-28T11:27:19.576Z,56.70
2019-02-28T11:29:50.337Z,56.80
2019-02-28T11:32:20.719Z,57.10
2019-02-28T11:34:50.729Z,57.00
2019-02-28T11:37:21.720Z,57.20
2019-02-28T11:39:51.657Z,57.60
2019-02-28T11:42:24.610Z,57.90
2019-02-28T11:44:53.147Z,56.10
2019-02-28T11:47:23.379Z,56.80
2019-02-28T11:49:53.923Z,57.80
2019-02-28T11:52:24.447Z,58.40
2019-02-28T11:54:55.608Z,58.70
2019-02-28T11:57:25.541Z,58.80
2019-02-28T12:00:00.069Z,58.80
2019-02-28T12:02:27.262Z,58.90
2019-02-28T12:04:57.204Z,58.90
2019-02-28T12:07:27.132Z,59.50
2019-02-28T12:09:57.107Z,59.60
2019-02-28T12:12:26.998Z,59.80
2019-02-28T12:14:56.864Z,59.90
2019-02-28T12:17:28.581Z,60.10
2019-02-28T12:19:58.276Z,60.10
2019-02-28T12:22:28.116Z,60.60
2019-02-28T12:24:57.992Z,61.70
2019-02-28T12:27:28.268Z,62.40
2019-02-28T12:29:58.264Z,62.30
2019-02-28T12:32:28.127Z,61.60
2019-02-28T12:35:01.489Z,60.20
2019-02-28T12:37:29.624Z,46.20
2019-02-28T12:40:00.402Z,39.60
2019-02-28T12:42:31.609Z,38.90
2019-02-28T12:45:01.732Z,36.30
2019-02-28T12:47:33.297Z,36.20
2019-02-28T12:50:03.752Z,36.30
2019-02-28T12:52:34.573Z,36.60
2019-02-28T12:55:06.928Z,36.30
2019-02-28T12:57:36.807Z,36.50
2019-02-28T13:00:09.793Z,39.10
2019-02-28T13:02:43.497Z,41.50
2019-02-28T13:05:15.807Z,43.00
2019-02-28T13:07:44.990Z,44.50
2019-02-28T13:10:19.956Z,45.90
2019-02-28T13:12:50.041Z,46.70
2019-02-28T13:15:20.844Z,47.50
2019-02-28T13:17:50.835Z,47.90
2019-02-28T13:20:38.104Z,48.40
2019-02-28T13:23:08.175Z,49.00
2019-02-28T13:25:38.169Z,49.70
2019-02-28T13:28:08.680Z,50.20
2019-02-28T13:30:40.277Z,50.50
2019-02-28T13:33:10.977Z,51.60
2019-02-28T13:35:47.128Z,51.20
2019-02-28T13:38:17.431Z,51.30
2019-02-28T13:40:45.008Z,51.50
2019-02-28T13:43:21.054Z,51.50
2019-02-28T13:45:50.636Z,51.30
2019-02-28T13:48:26.259Z,51.20
2019-02-28T13:50:50.580Z,51.40
2019-02-28T13:53:23.167Z,51.80
2019-02-28T13:55:52.714Z,51.80
2019-02-28T13:58:23.687Z,51.80
2019-02-28T14:00:53.671Z,52.30
2019-02-28T14:03:23.744Z,52.10
2019-02-28T14:05:53.689Z,52.10
2019-02-28T14:08:23.528Z,52.20
2019-02-28T14:10:54.639Z,52.50
2019-02-28T14:13:24.542Z,52.80
2019-02-28T14:15:54.552Z,53.70
2019-02-28T14:18:25.641Z,54.00
2019-02-28T14:20:59.561Z,53.70
2019-02-28T14:23:28.440Z,54.60
2019-02-28T14:25:58.460Z,54.30
2019-02-28T14:28:28.456Z,54.50
2019-02-28T14:30:58.769Z,54.60
2019-02-28T14:33:28.804Z,41.60
2019-02-28T14:35:58.822Z,38.40
2019-02-28T14:38:29.638Z,36.00
2019-02-28T14:41:00.476Z,35.70
2019-02-28T14:43:30.479Z,36.30
2019-02-28T14:46:00.493Z,35.60
2019-02-28T14:48:30.488Z,35.60
2019-02-28T14:51:00.433Z,36.10
2019-02-28T14:53:30.353Z,38.90
2019-02-28T14:56:00.233Z,41.10
2019-02-28T14:58:30.308Z,42.70
2019-02-28T15:01:00.325Z,44.10
2019-02-28T15:03:30.231Z,45.20
2019-02-28T15:06:00.164Z,46.30
2019-02-28T15:08:30.144Z,47.70
2019-02-28T15:11:00.025Z,46.90
2019-02-28T15:13:30.490Z,48.10
2019-02-28T15:16:01.730Z,48.50
2019-02-28T15:18:31.650Z,48.90
2019-02-28T15:21:04.445Z,49.20
2019-02-28T15:23:34.238Z,49.50
2019-02-28T15:26:05.033Z,49.80
2019-02-28T15:28:34.966Z,49.90
2019-02-28T15:31:05.752Z,50.10
2019-02-28T15:33:36.595Z,50.10
2019-02-28T15:36:06.581Z,50.60
2019-02-28T15:38:36.460Z,50.70
2019-02-28T15:41:06.384Z,51.10
2019-02-28T15:43:36.323Z,51.50
2019-02-28T15:46:08.579Z,51.80
2019-02-28T15:48:37.860Z,51.90
2019-02-28T15:51:08.053Z,52.40
2019-02-28T15:53:38.057Z,52.30
2019-02-28T15:56:13.445Z,52.50
2019-02-28T15:58:41.479Z,52.90
2019-02-28T16:01:11.352Z,53.10
2019-02-28T16:03:41.274Z,53.30
2019-02-28T16:06:11.306Z,53.60
2019-02-28T16:08:42.019Z,53.80
2019-02-28T16:11:12.912Z,53.90
2019-02-28T16:13:42.912Z,54.10
2019-02-28T16:16:12.765Z,54.30
2019-02-28T16:18:44.063Z,54.10
2019-02-28T16:21:14.305Z,54.10
2019-02-28T16:23:44.236Z,54.30
2019-02-28T16:26:14.306Z,54.50
2019-02-28T16:28:44.240Z,54.60
2019-02-28T16:31:14.155Z,54.70
2019-02-28T16:33:44.067Z,54.30
2019-02-28T16:36:15.811Z,54.40
2019-02-28T16:38:45.859Z,54.50
2019-02-28T16:41:16.828Z,54.70
2019-02-28T16:43:46.816Z,54.40
2019-02-28T16:46:16.753Z,54.60
2019-02-28T16:48:46.671Z,54.60
2019-02-28T16:51:16.573Z,54.70
2019-02-28T16:53:47.926Z,54.80
2019-02-28T16:56:18.073Z,54.70
2019-02-28T16:58:48.067Z,54.70
2019-02-28T17:01:20.581Z,54.70
2019-02-28T17:03:49.769Z,54.70
2019-02-28T17:06:19.624Z,55.50
2019-02-28T17:08:51.459Z,55.00
2019-02-28T17:11:22.807Z,55.10
2019-02-28T17:13:54.341Z,55.40
2019-02-28T17:16:28.571Z,55.40
2019-02-28T17:18:58.519Z,55.40
2019-02-28T17:21:28.524Z,55.50
2019-02-28T17:23:58.621Z,55.60
2019-02-28T17:26:31.028Z,55.80
2019-02-28T17:29:06.292Z,55.70
2019-02-28T17:31:47.984Z,55.60
2019-02-28T17:34:23.752Z,52.20
2019-02-28T17:36:50.729Z,54.50
2019-02-28T17:39:21.792Z,55.00
2019-02-28T17:41:51.818Z,55.20
2019-02-28T17:44:24.804Z,55.50
2019-02-28T17:47:09.640Z,55.60
2019-02-28T17:50:15.909Z,56.00
2019-02-28T17:53:03.756Z,56.70
2019-02-28T17:55:36.757Z,57.30
2019-02-28T17:58:15.568Z,57.90
2019-02-28T18:01:25.435Z,58.70
2019-02-28T18:03:58.295Z,60.20
2019-02-28T18:06:57.176Z,59.90
2019-02-28T18:09:35.808Z,60.50
2019-02-28T18:12:31.495Z,60.10
2019-02-28T18:15:05.551Z,60.80
2019-02-28T18:17:58.840Z,61.20
2019-02-28T18:20:37.682Z,61.40
2019-02-28T18:23:21.158Z,61.40
2019-02-28T18:26:09.553Z,61.50
2019-02-28T18:28:48.713Z,62.00
2019-02-28T18:31:22.181Z,61.70
2019-02-28T18:33:53.119Z,61.80
2019-02-28T18:36:25.881Z,61.70
2019-02-28T18:38:55.772Z,61.80
2019-02-28T18:41:25.773Z,61.80
2019-02-28T18:43:55.719Z,61.90
2019-02-28T18:46:29.506Z,61.90
2019-02-28T18:48:57.353Z,62.00
2019-02-28T18:51:27.201Z,62.00
2019-02-28T18:53:57.215Z,62.00
2019-02-28T18:56:27.143Z,62.00
2019-02-28T18:58:57.116Z,62.00
2019-02-28T19:01:27.037Z,61.90
2019-02-28T19:03:57.049Z,62.00
2019-02-28T19:06:27.117Z,61.90
2019-02-28T19:08:57.056Z,61.80
2019-02-28T19:11:27.057Z,61.80
2019-02-28T19:13:57.084Z,61.70
2019-02-28T19:16:27.164Z,61.80
2019-02-28T19:18:57.218Z,61.80
2019-02-28T19:21:27.443Z,61.80
2019-02-28T19:23:57.888Z,62.00
2019-02-28T19:26:27.847Z,62.10
2019-02-28T19:28:57.826Z,62.10
2019-02-28T19:31:28.215Z,62.10
2019-02-28T19:33:58.968Z,61.70
2019-02-28T19:36:29.997Z,62.00
2019-02-28T19:39:05.143Z,62.00
2019-02-28T19:41:36.668Z,62.10
2019-02-28T19:44:07.565Z,62.00
2019-02-28T19:46:38.630Z,61.90
2019-02-28T19:49:09.811Z,61.80
2019-02-28T19:51:40.928Z,61.80
2019-02-28T19:54:11.948Z,61.80
2019-02-28T19:56:42.998Z,61.70
2019-02-28T19:59:14.108Z,61.70
2019-02-28T20:01:45.474Z,61.50
2019-02-28T20:04:16.780Z,61.50
2019-02-28T20:06:47.862Z,61.40
2019-02-28T20:09:19.452Z,61.40
2019-02-28T20:11:50.590Z,61.20
2019-02-28T20:14:21.700Z,61.20
2019-02-28T20:16:52.598Z,61.20
2019-02-28T20:19:23.277Z,61.10
2019-02-28T20:21:54.135Z,61.60
2019-02-28T20:24:25.344Z,61.00
2019-02-28T20:26:56.422Z,61.00
2019-02-28T20:29:27.596Z,60.80
2019-02-28T20:31:58.778Z,60.90
2019-02-28T20:34:30.109Z,60.80
2019-02-28T20:37:00.940Z,60.70
2019-02-28T20:39:32.202Z,60.80
2019-02-28T20:42:03.108Z,60.70
2019-02-28T20:44:33.976Z,60.60
2019-02-28T20:47:04.911Z,60.70
2019-02-28T20:49:35.777Z,60.50
2019-02-28T20:52:06.731Z,60.50
2019-02-28T20:54:38.601Z,60.70
2019-02-28T20:57:09.025Z,60.50
2019-02-28T20:59:39.586Z,60.50
2019-02-28T21:02:09.823Z,60.40
2019-02-28T21:04:39.904Z,60.40
2019-02-28T21:07:10.252Z,60.40
2019-02-28T21:09:44.914Z,60.30
2019-02-28T21:12:11.356Z,60.20
2019-02-28T21:14:41.136Z,60.20
2019-02-28T21:17:11.056Z,60.10
2019-02-28T21:19:41.071Z,60.20
2019-02-28T21:22:11.065Z,60.10
2019-02-28T21:24:41.097Z,60.00
2019-02-28T21:27:11.101Z,60.10
2019-02-28T21:29:41.194Z,60.00
2019-02-28T21:32:12.180Z,59.90
2019-02-28T21:34:42.184Z,59.90
2019-02-28T21:37:12.098Z,60.00
2019-02-28T21:39:42.029Z,59.90
2019-02-28T21:42:12.380Z,59.90
2019-02-28T21:44:42.452Z,59.90
2019-02-28T21:47:12.477Z,59.90
2019-02-28T21:49:42.485Z,59.90
2019-02-28T21:52:12.465Z,59.90
2019-02-28T21:54:42.399Z,59.80
2019-02-28T21:57:12.313Z,58.60
2019-02-28T21:59:43.330Z,58.80
2019-02-28T22:02:13.176Z,58.50
2019-02-28T22:04:43.117Z,59.30
2019-02-28T22:07:12.967Z,59.50
2019-02-28T22:09:42.931Z,59.60
2019-02-28T22:12:12.920Z,59.70
2019-02-28T22:14:42.857Z,59.70
2019-02-28T22:17:12.704Z,59.70
2019-02-28T22:19:42.570Z,59.70
2019-02-28T22:22:12.575Z,59.70
2019-02-28T22:24:42.518Z,59.70
2019-02-28T22:27:12.499Z,59.20
2019-02-28T22:29:42.443Z,59.70
2019-02-28T22:32:23.835Z,59.50
2019-02-28T22:34:47.346Z,59.50
2019-02-28T22:37:17.189Z,59.40
2019-02-28T22:39:47.129Z,60.10
2019-02-28T22:42:21.976Z,59.40
2019-02-28T22:44:48.602Z,59.40
2019-02-28T22:47:18.465Z,59.40
2019-02-28T22:49:48.406Z,59.30
2019-02-28T22:52:18.323Z,59.30
2019-02-28T22:54:48.222Z,59.30
2019-02-28T22:57:18.146Z,59.30
2019-02-28T22:59:48.006Z,59.30
2019-02-28T23:02:18.056Z,59.20
2019-02-28T23:04:47.989Z,59.20
2019-02-28T23:07:17.839Z,59.30
2019-02-28T23:09:47.768Z,59.20
2019-02-28T23:12:17.605Z,59.20
2019-02-28T23:14:47.465Z,59.20
2019-02-28T23:17:17.449Z,59.20
2019-02-28T23:19:47.312Z,59.10
2019-02-28T23:22:17.227Z,59.00
2019-02-28T23:24:47.164Z,59.10
2019-02-28T23:27:17.615Z,59.00
2019-02-28T23:29:50.547Z,59.20
2019-02-28T23:32:29.313Z,59.30
2019-02-28T23:34:59.160Z,59.50
2019-02-28T23:37:29.019Z,59.80
2019-02-28T23:39:58.856Z,59.80
2019-02-28T23:42:28.720Z,59.90
2019-02-28T23:44:58.566Z,59.90
2019-02-28T23:47:28.427Z,59.80
2019-02-28T23:49:58.343Z,59.80
2019-02-28T23:52:28.216Z,60.00
2019-02-28T23:54:58.059Z,59.90
2019-02-28T23:57:27.994Z,60.00
2019-02-28T23:59:57.855Z,60.00
